sensor_id;sensor_type;location;lat;lon;timestamp;noise_LAeq;noise_LA_min;noise_LA_max;noise_LA01;noise_LA95
71230;Laerm;57282;52.514;13.458;2022-07-29T00:00:50;58.16;33.59;75.76;;
71230;Laerm;57282;52.514;13.458;2022-07-29T00:03:16;40.25;33.79;57.77;;
71230;Laerm;57282;52.514;13.458;2022-07-29T00:05:43;61.08;34.39;80.23;;
71230;Laerm;57282;52.514;13.458;2022-07-29T00:08:10;51.21;34.17;68.90;;
71230;Laerm;57282;52.514;13.458;2022-07-29T00:10:36;56.67;32.39;73.95;;
71230;Laerm;57282;52.514;13.458;2022-07-29T00:13:03;59.27;34.15;74.18;;
71230;Laerm;57282;52.514;13.458;2022-07-29T00:15:29;42.48;34.93;57.02;;
71230;Laerm;57282;52.514;13.458;2022-07-29T00:17:57;55.26;31.86;74.05;;
71230;Laerm;57282;52.514;13.458;2022-07-29T00:20:24;56.74;32.48;73.74;;
71230;Laerm;57282;52.514;13.458;2022-07-29T00:22:51;60.24;34.82;77.24;;
71230;Laerm;57282;52.514;13.458;2022-07-29T00:25:19;56.67;32.49;73.02;;
71230;Laerm;57282;52.514;13.458;2022-07-29T00:27:45;58.35;33.66;74.67;;
71230;Laerm;57282;52.514;13.458;2022-07-29T00:30:12;58.27;32.71;75.39;;
71230;Laerm;57282;52.514;13.458;2022-07-29T00:32:39;59.01;33.87;77.30;;
71230;Laerm;57282;52.514;13.458;2022-07-29T00:35:08;59.64;31.80;79.89;;
71230;Laerm;57282;52.514;13.458;2022-07-29T00:37:53;56.80;33.09;74.77;;
71230;Laerm;57282;52.514;13.458;2022-07-29T00:40:20;57.52;32.89;77.56;;
71230;Laerm;57282;52.514;13.458;2022-07-29T00:42:49;57.09;35.05;75.18;;
71230;Laerm;57282;52.514;13.458;2022-07-29T00:45:18;60.67;33.41;80.41;;
71230;Laerm;57282;52.514;13.458;2022-07-29T00:47:45;63.56;32.40;84.98;;
71230;Laerm;57282;52.514;13.458;2022-07-29T00:50:19;58.63;32.71;76.87;;
71230;Laerm;57282;52.514;13.458;2022-07-29T00:52:46;62.74;33.82;80.33;;
71230;Laerm;57282;52.514;13.458;2022-07-29T00:55:14;54.72;33.54;73.96;;
71230;Laerm;57282;52.514;13.458;2022-07-29T00:57:43;63.01;32.74;78.08;;
71230;Laerm;57282;52.514;13.458;2022-07-29T01:00:14;55.23;33.21;75.90;;
71230;Laerm;57282;52.514;13.458;2022-07-29T01:02:42;60.78;32.97;77.52;;
71230;Laerm;57282;52.514;13.458;2022-07-29T01:05:11;57.33;32.79;76.09;;
71230;Laerm;57282;52.514;13.458;2022-07-29T01:07:41;57.32;33.99;73.69;;
71230;Laerm;57282;52.514;13.458;2022-07-29T01:10:09;59.90;34.08;78.06;;
71230;Laerm;57282;52.514;13.458;2022-07-29T01:12:40;62.29;36.36;79.86;;
71230;Laerm;57282;52.514;13.458;2022-07-29T01:15:08;58.66;34.14;75.42;;
71230;Laerm;57282;52.514;13.458;2022-07-29T01:17:43;50.50;36.23;69.29;;
71230;Laerm;57282;52.514;13.458;2022-07-29T01:20:20;57.03;36.70;75.07;;
71230;Laerm;57282;52.514;13.458;2022-07-29T01:23:46;60.61;32.31;77.94;;
71230;Laerm;57282;52.514;13.458;2022-07-29T01:26:41;57.82;31.57;77.31;;
71230;Laerm;57282;52.514;13.458;2022-07-29T01:29:18;55.10;32.63;75.03;;
71230;Laerm;57282;52.514;13.458;2022-07-29T01:31:54;37.21;31.94;50.52;;
71230;Laerm;57282;52.514;13.458;2022-07-29T01:34:37;59.66;32.24;76.49;;
71230;Laerm;57282;52.514;13.458;2022-07-29T01:37:16;37.32;31.76;50.45;;
71230;Laerm;57282;52.514;13.458;2022-07-29T01:39:47;58.23;33.04;75.38;;
71230;Laerm;57282;52.514;13.458;2022-07-29T01:42:29;59.58;34.86;77.10;;
71230;Laerm;57282;52.514;13.458;2022-07-29T01:45:03;38.70;33.76;49.54;;
71230;Laerm;57282;52.514;13.458;2022-07-29T01:47:41;62.79;33.36;82.57;;
71230;Laerm;57282;52.514;13.458;2022-07-29T01:50:15;57.15;32.44;76.91;;
71230;Laerm;57282;52.514;13.458;2022-07-29T01:52:47;39.43;32.65;57.06;;
71230;Laerm;57282;52.514;13.458;2022-07-29T01:55:19;52.93;33.85;70.21;;
71230;Laerm;57282;52.514;13.458;2022-07-29T01:57:49;56.50;32.98;76.13;;
71230;Laerm;57282;52.514;13.458;2022-07-29T02:00:18;46.16;33.27;67.35;;
71230;Laerm;57282;52.514;13.458;2022-07-29T02:02:47;50.98;34.18;68.18;;
71230;Laerm;57282;52.514;13.458;2022-07-29T02:05:18;43.12;34.52;57.07;;
71230;Laerm;57282;52.514;13.458;2022-07-29T02:07:47;59.44;34.84;74.11;;
71230;Laerm;57282;52.514;13.458;2022-07-29T02:10:18;53.45;33.17;74.17;;
71230;Laerm;57282;52.514;13.458;2022-07-29T02:12:48;55.32;33.71;71.75;;
71230;Laerm;57282;52.514;13.458;2022-07-29T02:15:18;39.87;32.82;56.82;;
71230;Laerm;57282;52.514;13.458;2022-07-29T02:17:53;57.90;33.52;75.06;;
71230;Laerm;57282;52.514;13.458;2022-07-29T02:20:28;54.23;33.31;74.05;;
71230;Laerm;57282;52.514;13.458;2022-07-29T02:22:57;40.07;34.03;49.25;;
71230;Laerm;57282;52.514;13.458;2022-07-29T02:25:27;57.86;33.69;77.26;;
71230;Laerm;57282;52.514;13.458;2022-07-29T02:27:54;58.26;35.01;75.38;;
71230;Laerm;57282;52.514;13.458;2022-07-29T02:30:25;59.23;34.85;75.15;;
71230;Laerm;57282;52.514;13.458;2022-07-29T02:32:54;41.07;35.33;51.66;;
71230;Laerm;57282;52.514;13.458;2022-07-29T02:35:22;53.79;34.54;70.05;;
71230;Laerm;57282;52.514;13.458;2022-07-29T02:37:51;49.37;36.14;68.07;;
71230;Laerm;57282;52.514;13.458;2022-07-29T02:40:36;53.28;34.75;73.01;;
71230;Laerm;57282;52.514;13.458;2022-07-29T02:43:06;41.34;34.13;54.68;;
71230;Laerm;57282;52.514;13.458;2022-07-29T02:45:35;51.93;35.37;70.19;;
71230;Laerm;57282;52.514;13.458;2022-07-29T02:48:08;54.19;36.19;70.85;;
71230;Laerm;57282;52.514;13.458;2022-07-29T02:50:44;58.91;36.56;77.98;;
71230;Laerm;57282;52.514;13.458;2022-07-29T02:53:18;55.56;37.34;74.32;;
71230;Laerm;57282;52.514;13.458;2022-07-29T02:55:55;62.16;37.49;80.85;;
71230;Laerm;57282;52.514;13.458;2022-07-29T02:58:28;59.16;36.49;76.96;;
71230;Laerm;57282;52.514;13.458;2022-07-29T03:01:01;57.73;35.28;75.88;;
71230;Laerm;57282;52.514;13.458;2022-07-29T03:03:34;56.11;36.50;74.57;;
71230;Laerm;57282;52.514;13.458;2022-07-29T03:06:04;57.30;37.57;72.75;;
71230;Laerm;57282;52.514;13.458;2022-07-29T03:08:32;55.45;36.41;74.37;;
71230;Laerm;57282;52.514;13.458;2022-07-29T03:11:00;53.25;37.74;71.98;;
71230;Laerm;57282;52.514;13.458;2022-07-29T03:13:29;45.02;36.56;53.62;;
71230;Laerm;57282;52.514;13.458;2022-07-29T03:15:58;58.98;36.22;75.06;;
71230;Laerm;57282;52.514;13.458;2022-07-29T03:18:26;61.26;36.18;79.62;;
71230;Laerm;57282;52.514;13.458;2022-07-29T03:20:53;45.04;35.99;54.11;;
71230;Laerm;57282;52.514;13.458;2022-07-29T03:23:21;58.00;38.09;75.31;;
71230;Laerm;57282;52.514;13.458;2022-07-29T03:25:50;61.61;38.77;77.32;;
71230;Laerm;57282;52.514;13.458;2022-07-29T03:28:16;63.38;40.06;82.37;;
71230;Laerm;57282;52.514;13.458;2022-07-29T03:30:43;59.56;38.99;78.45;;
71230;Laerm;57282;52.514;13.458;2022-07-29T03:33:11;60.84;39.25;79.08;;
71230;Laerm;57282;52.514;13.458;2022-07-29T03:35:38;58.88;38.74;75.91;;
71230;Laerm;57282;52.514;13.458;2022-07-29T03:38:04;61.63;39.82;76.32;;
71230;Laerm;57282;52.514;13.458;2022-07-29T03:40:35;58.75;38.20;75.08;;
71230;Laerm;57282;52.514;13.458;2022-07-29T03:43:06;61.59;40.46;77.02;;
71230;Laerm;57282;52.514;13.458;2022-07-29T03:45:37;57.80;39.29;72.87;;
71230;Laerm;57282;52.514;13.458;2022-07-29T03:48:12;62.14;39.16;76.77;;
71230;Laerm;57282;52.514;13.458;2022-07-29T03:50:40;57.20;40.07;75.09;;
71230;Laerm;57282;52.514;13.458;2022-07-29T03:53:07;61.58;40.00;76.60;;
71230;Laerm;57282;52.514;13.458;2022-07-29T03:55:41;62.90;40.97;79.99;;
71230;Laerm;57282;52.514;13.458;2022-07-29T03:58:08;64.84;40.93;78.40;;
71230;Laerm;57282;52.514;13.458;2022-07-29T04:00:37;63.37;36.35;79.16;;
71230;Laerm;57282;52.514;13.458;2022-07-29T04:03:05;63.58;40.75;77.56;;
71230;Laerm;57282;52.514;13.458;2022-07-29T04:05:33;61.73;41.33;76.80;;
71230;Laerm;57282;52.514;13.458;2022-07-29T04:08:00;62.99;43.70;78.27;;
71230;Laerm;57282;52.514;13.458;2022-07-29T04:10:26;58.38;38.60;73.07;;
71230;Laerm;57282;52.514;13.458;2022-07-29T04:12:53;65.99;38.98;82.96;;
71230;Laerm;57282;52.514;13.458;2022-07-29T04:15:20;61.29;39.34;80.62;;
71230;Laerm;57282;52.514;13.458;2022-07-29T04:17:46;61.79;41.50;77.89;;
71230;Laerm;57282;52.514;13.458;2022-07-29T04:20:19;65.81;43.20;79.27;;
71230;Laerm;57282;52.514;13.458;2022-07-29T04:22:47;59.67;42.62;76.26;;
71230;Laerm;57282;52.514;13.458;2022-07-29T04:25:14;63.80;44.97;77.69;;
71230;Laerm;57282;52.514;13.458;2022-07-29T04:27:40;65.82;43.16;78.45;;
71230;Laerm;57282;52.514;13.458;2022-07-29T04:30:25;66.96;44.53;83.09;;
71230;Laerm;57282;52.514;13.458;2022-07-29T04:32:52;64.18;42.15;78.71;;
71230;Laerm;57282;52.514;13.458;2022-07-29T04:35:19;63.14;42.06;80.94;;
71230;Laerm;57282;52.514;13.458;2022-07-29T04:37:47;65.96;46.03;78.66;;
71230;Laerm;57282;52.514;13.458;2022-07-29T04:40:14;60.51;41.43;76.80;;
71230;Laerm;57282;52.514;13.458;2022-07-29T04:42:41;61.30;43.38;74.85;;
71230;Laerm;57282;52.514;13.458;2022-07-29T04:45:08;64.46;43.10;80.48;;
71230;Laerm;57282;52.514;13.458;2022-07-29T04:47:35;62.99;40.40;76.60;;
71230;Laerm;57282;52.514;13.458;2022-07-29T04:50:02;62.62;44.21;77.25;;
71230;Laerm;57282;52.514;13.458;2022-07-29T04:52:30;58.06;40.47;72.32;;
71230;Laerm;57282;52.514;13.458;2022-07-29T04:54:58;62.05;44.99;75.47;;
71230;Laerm;57282;52.514;13.458;2022-07-29T04:57:25;64.65;44.93;78.24;;
71230;Laerm;57282;52.514;13.458;2022-07-29T04:59:51;62.95;42.19;75.99;;
71230;Laerm;57282;52.514;13.458;2022-07-29T05:02:18;63.61;43.29;77.79;;
71230;Laerm;57282;52.514;13.458;2022-07-29T05:04:44;64.88;48.30;79.02;;
71230;Laerm;57282;52.514;13.458;2022-07-29T05:07:11;64.36;48.49;80.28;;
71230;Laerm;57282;52.514;13.458;2022-07-29T05:09:38;64.46;46.22;79.43;;
71230;Laerm;57282;52.514;13.458;2022-07-29T05:12:06;60.03;42.22;76.62;;
71230;Laerm;57282;52.514;13.458;2022-07-29T05:14:33;63.94;41.24;80.57;;
71230;Laerm;57282;52.514;13.458;2022-07-29T05:17:00;62.75;40.70;78.17;;
71230;Laerm;57282;52.514;13.458;2022-07-29T05:19:26;62.30;40.48;80.82;;
71230;Laerm;57282;52.514;13.458;2022-07-29T05:21:53;63.40;42.10;76.60;;
71230;Laerm;57282;52.514;13.458;2022-07-29T05:24:20;61.89;40.75;77.59;;
71230;Laerm;57282;52.514;13.458;2022-07-29T05:26:46;65.22;42.93;79.30;;
71230;Laerm;57282;52.514;13.458;2022-07-29T05:29:14;63.47;41.30;82.78;;
71230;Laerm;57282;52.514;13.458;2022-07-29T05:31:41;62.20;37.74;80.25;;
71230;Laerm;57282;52.514;13.458;2022-07-29T05:34:07;66.73;43.75;79.78;;
71230;Laerm;57282;52.514;13.458;2022-07-29T05:36:34;65.56;43.61;78.11;;
71230;Laerm;57282;52.514;13.458;2022-07-29T05:39:01;64.79;43.10;78.37;;
71230;Laerm;57282;52.514;13.458;2022-07-29T05:41:27;66.66;45.24;79.89;;
71230;Laerm;57282;52.514;13.458;2022-07-29T05:43:54;61.15;44.04;79.59;;
71230;Laerm;57282;52.514;13.458;2022-07-29T05:46:22;62.37;44.36;77.05;;
71230;Laerm;57282;52.514;13.458;2022-07-29T05:48:49;68.57;52.23;79.70;;
71230;Laerm;57282;52.514;13.458;2022-07-29T05:51:15;68.26;55.67;78.36;;
71230;Laerm;57282;52.514;13.458;2022-07-29T05:53:42;66.35;52.49;77.11;;
71230;Laerm;57282;52.514;13.458;2022-07-29T05:56:10;64.25;45.74;77.02;;
71230;Laerm;57282;52.514;13.458;2022-07-29T05:58:37;59.02;46.01;73.12;;
71230;Laerm;57282;52.514;13.458;2022-07-29T06:01:03;64.55;53.15;79.37;;
71230;Laerm;57282;52.514;13.458;2022-07-29T06:03:31;66.37;60.40;77.32;;
71230;Laerm;57282;52.514;13.458;2022-07-29T06:05:58;63.72;59.83;74.12;;
71230;Laerm;57282;52.514;13.458;2022-07-29T06:08:25;69.19;60.04;77.06;;
71230;Laerm;57282;52.514;13.458;2022-07-29T06:10:51;66.26;52.81;78.01;;
71230;Laerm;57282;52.514;13.458;2022-07-29T06:13:18;61.28;51.39;75.00;;
71230;Laerm;57282;52.514;13.458;2022-07-29T06:15:45;65.99;51.41;78.89;;
71230;Laerm;57282;52.514;13.458;2022-07-29T06:18:12;63.52;42.83;78.00;;
71230;Laerm;57282;52.514;13.458;2022-07-29T06:20:40;60.88;40.05;76.05;;
71230;Laerm;57282;52.514;13.458;2022-07-29T06:23:07;65.92;41.49;81.73;;
71230;Laerm;57282;52.514;13.458;2022-07-29T06:25:35;68.48;53.78;83.61;;
71230;Laerm;57282;52.514;13.458;2022-07-29T06:28:02;64.78;48.28;77.53;;
71230;Laerm;57282;52.514;13.458;2022-07-29T06:30:29;60.16;43.01;75.09;;
71230;Laerm;57282;52.514;13.458;2022-07-29T06:32:56;61.29;45.12;78.76;;
71230;Laerm;57282;52.514;13.458;2022-07-29T06:35:23;66.70;44.85;83.31;;
71230;Laerm;57282;52.514;13.458;2022-07-29T06:37:51;67.21;46.47;82.69;;
71230;Laerm;57282;52.514;13.458;2022-07-29T06:40:18;67.02;44.64;81.10;;
71230;Laerm;57282;52.514;13.458;2022-07-29T06:43:02;61.25;38.93;76.58;;
71230;Laerm;57282;52.514;13.458;2022-07-29T06:45:29;61.77;39.82;79.96;;
71230;Laerm;57282;52.514;13.458;2022-07-29T06:47:55;63.25;41.78;77.07;;
71230;Laerm;57282;52.514;13.458;2022-07-29T06:50:22;62.88;40.48;76.32;;
71230;Laerm;57282;52.514;13.458;2022-07-29T06:52:50;62.87;43.70;78.67;;
71230;Laerm;57282;52.514;13.458;2022-07-29T06:55:17;65.58;43.73;79.55;;
71230;Laerm;57282;52.514;13.458;2022-07-29T06:57:45;65.45;43.91;78.36;;
71230;Laerm;57282;52.514;13.458;2022-07-29T07:00:13;65.56;45.09;78.54;;
71230;Laerm;57282;52.514;13.458;2022-07-29T07:02:40;65.37;44.96;79.91;;
71230;Laerm;57282;52.514;13.458;2022-07-29T07:05:07;62.37;42.16;77.80;;
71230;Laerm;57282;52.514;13.458;2022-07-29T07:07:34;61.41;42.54;75.57;;
71230;Laerm;57282;52.514;13.458;2022-07-29T07:10:03;63.76;48.06;75.68;;
71230;Laerm;57282;52.514;13.458;2022-07-29T07:12:30;61.51;43.29;75.38;;
71230;Laerm;57282;52.514;13.458;2022-07-29T07:14:56;64.92;43.57;82.25;;
71230;Laerm;57282;52.514;13.458;2022-07-29T07:17:23;62.37;45.45;80.19;;
71230;Laerm;57282;52.514;13.458;2022-07-29T07:19:49;62.72;42.34;77.11;;
71230;Laerm;57282;52.514;13.458;2022-07-29T07:22:16;64.20;42.42;76.13;;
71230;Laerm;57282;52.514;13.458;2022-07-29T07:24:43;65.21;41.23;80.32;;
71230;Laerm;57282;52.514;13.458;2022-07-29T07:27:11;62.57;39.50;77.99;;
71230;Laerm;57282;52.514;13.458;2022-07-29T07:29:37;62.08;42.84;76.20;;
71230;Laerm;57282;52.514;13.458;2022-07-29T07:32:06;63.69;43.41;79.26;;
71230;Laerm;57282;52.514;13.458;2022-07-29T07:34:33;64.63;43.22;77.73;;
71230;Laerm;57282;52.514;13.458;2022-07-29T07:37:00;61.98;41.45;76.47;;
71230;Laerm;57282;52.514;13.458;2022-07-29T07:39:27;60.05;43.03;72.34;;
71230;Laerm;57282;52.514;13.458;2022-07-29T07:41:53;58.95;40.37;74.34;;
71230;Laerm;57282;52.514;13.458;2022-07-29T07:44:21;67.62;44.71;82.75;;
71230;Laerm;57282;52.514;13.458;2022-07-29T07:46:48;61.56;46.49;75.91;;
71230;Laerm;57282;52.514;13.458;2022-07-29T07:49:15;64.76;44.74;77.04;;
71230;Laerm;57282;52.514;13.458;2022-07-29T07:51:41;60.88;40.82;74.44;;
71230;Laerm;57282;52.514;13.458;2022-07-29T07:54:08;65.51;45.28;76.69;;
71230;Laerm;57282;52.514;13.458;2022-07-29T07:56:35;62.17;47.33;75.54;;
71230;Laerm;57282;52.514;13.458;2022-07-29T07:59:02;62.03;44.40;73.84;;
71230;Laerm;57282;52.514;13.458;2022-07-29T08:01:30;63.92;44.53;80.65;;
71230;Laerm;57282;52.514;13.458;2022-07-29T08:03:57;62.77;42.09;79.51;;
71230;Laerm;57282;52.514;13.458;2022-07-29T08:06:23;62.26;44.47;81.81;;
71230;Laerm;57282;52.514;13.458;2022-07-29T08:08:51;64.13;44.03;77.52;;
71230;Laerm;57282;52.514;13.458;2022-07-29T08:11:17;65.49;43.21;80.35;;
71230;Laerm;57282;52.514;13.458;2022-07-29T08:13:44;64.21;45.02;77.38;;
71230;Laerm;57282;52.514;13.458;2022-07-29T08:16:12;65.48;43.83;77.35;;
71230;Laerm;57282;52.514;13.458;2022-07-29T08:18:43;62.92;43.37;76.09;;
71230;Laerm;57282;52.514;13.458;2022-07-29T08:21:10;64.20;46.45;75.23;;
71230;Laerm;57282;52.514;13.458;2022-07-29T08:23:37;61.45;42.64;79.03;;
71230;Laerm;57282;52.514;13.458;2022-07-29T08:26:05;63.96;42.59;76.57;;
71230;Laerm;57282;52.514;13.458;2022-07-29T08:28:36;63.95;45.04;78.76;;
71230;Laerm;57282;52.514;13.458;2022-07-29T08:31:03;63.00;41.73;75.63;;
71230;Laerm;57282;52.514;13.458;2022-07-29T08:33:29;60.51;44.24;73.95;;
71230;Laerm;57282;52.514;13.458;2022-07-29T08:35:57;60.35;43.15;75.99;;
71230;Laerm;57282;52.514;13.458;2022-07-29T08:38:24;63.98;45.76;78.02;;
71230;Laerm;57282;52.514;13.458;2022-07-29T08:40:52;62.70;43.71;76.86;;
71230;Laerm;57282;52.514;13.458;2022-07-29T08:43:19;62.07;47.25;78.80;;
71230;Laerm;57282;52.514;13.458;2022-07-29T08:45:48;65.24;46.39;78.92;;
71230;Laerm;57282;52.514;13.458;2022-07-29T08:48:18;65.14;45.30;79.48;;
71230;Laerm;57282;52.514;13.458;2022-07-29T08:50:47;60.72;47.56;74.08;;
71230;Laerm;57282;52.514;13.458;2022-07-29T08:53:17;59.99;44.46;82.23;;
71230;Laerm;57282;52.514;13.458;2022-07-29T08:55:47;65.81;44.07;78.56;;
71230;Laerm;57282;52.514;13.458;2022-07-29T08:58:16;67.32;44.34;94.11;;
71230;Laerm;57282;52.514;13.458;2022-07-29T09:00:46;64.34;43.74;84.31;;
71230;Laerm;57282;52.514;13.458;2022-07-29T09:03:17;63.04;42.87;78.48;;
71230;Laerm;57282;52.514;13.458;2022-07-29T09:05:45;64.54;45.65;77.76;;
71230;Laerm;57282;52.514;13.458;2022-07-29T09:08:13;63.41;48.54;75.63;;
71230;Laerm;57282;52.514;13.458;2022-07-29T09:10:42;63.01;48.00;75.90;;
71230;Laerm;57282;52.514;13.458;2022-07-29T09:13:08;64.05;49.23;83.62;;
71230;Laerm;57282;52.514;13.458;2022-07-29T09:15:35;64.25;42.93;76.02;;
71230;Laerm;57282;52.514;13.458;2022-07-29T09:18:02;61.98;43.86;73.90;;
71230;Laerm;57282;52.514;13.458;2022-07-29T09:20:28;64.60;47.26;76.65;;
71230;Laerm;57282;52.514;13.458;2022-07-29T09:23:15;61.60;43.72;75.60;;
71230;Laerm;57282;52.514;13.458;2022-07-29T09:25:43;63.38;44.71;75.27;;
71230;Laerm;57282;52.514;13.458;2022-07-29T09:28:13;61.75;45.51;76.32;;
71230;Laerm;57282;52.514;13.458;2022-07-29T09:30:51;63.39;50.30;75.68;;
71230;Laerm;57282;52.514;13.458;2022-07-29T09:33:18;61.39;45.89;74.84;;
71230;Laerm;57282;52.514;13.458;2022-07-29T09:35:45;63.95;46.83;76.12;;
71230;Laerm;57282;52.514;13.458;2022-07-29T09:38:13;62.23;41.97;91.65;;
71230;Laerm;57282;52.514;13.458;2022-07-29T09:40:40;62.01;42.57;76.82;;
71230;Laerm;57282;52.514;13.458;2022-07-29T09:43:12;63.71;46.68;75.64;;
71230;Laerm;57282;52.514;13.458;2022-07-29T09:45:39;62.84;47.93;79.68;;
71230;Laerm;57282;52.514;13.458;2022-07-29T09:48:15;62.43;44.28;75.75;;
71230;Laerm;57282;52.514;13.458;2022-07-29T09:50:44;64.31;46.75;76.54;;
71230;Laerm;57282;52.514;13.458;2022-07-29T09:53:29;63.01;48.16;77.94;;
71230;Laerm;57282;52.514;13.458;2022-07-29T09:55:57;63.29;46.14;79.22;;
71230;Laerm;57282;52.514;13.458;2022-07-29T09:58:25;66.20;47.28;79.48;;
71230;Laerm;57282;52.514;13.458;2022-07-29T10:00:54;63.03;46.98;78.36;;
71230;Laerm;57282;52.514;13.458;2022-07-29T10:03:22;63.00;46.08;76.37;;
71230;Laerm;57282;52.514;13.458;2022-07-29T10:06:07;61.76;47.30;72.64;;
71230;Laerm;57282;52.514;13.458;2022-07-29T10:08:35;62.64;49.15;72.32;;
71230;Laerm;57282;52.514;13.458;2022-07-29T10:11:10;65.19;48.55;78.45;;
71230;Laerm;57282;52.514;13.458;2022-07-29T10:13:41;61.93;45.48;75.40;;
71230;Laerm;57282;52.514;13.458;2022-07-29T10:16:08;61.91;46.52;74.40;;
71230;Laerm;57282;52.514;13.458;2022-07-29T10:18:37;62.83;46.30;72.95;;
71230;Laerm;57282;52.514;13.458;2022-07-29T10:21:04;63.35;48.06;80.14;;
71230;Laerm;57282;52.514;13.458;2022-07-29T10:23:31;62.76;44.86;76.30;;
71230;Laerm;57282;52.514;13.458;2022-07-29T10:25:59;63.26;46.95;82.00;;
71230;Laerm;57282;52.514;13.458;2022-07-29T10:28:26;61.32;44.80;72.17;;
71230;Laerm;57282;52.514;13.458;2022-07-29T10:31:02;61.27;45.60;73.88;;
71230;Laerm;57282;52.514;13.458;2022-07-29T10:33:47;64.35;46.10;76.54;;
71230;Laerm;57282;52.514;13.458;2022-07-29T10:36:41;62.25;48.12;73.28;;
71230;Laerm;57282;52.514;13.458;2022-07-29T10:39:27;62.05;46.16;76.90;;
71230;Laerm;57282;52.514;13.458;2022-07-29T10:42:13;60.14;43.83;75.99;;
71230;Laerm;57282;52.514;13.458;2022-07-29T10:44:43;61.39;44.71;76.40;;
71230;Laerm;57282;52.514;13.458;2022-07-29T10:47:22;63.31;49.08;78.06;;
71230;Laerm;57282;52.514;13.458;2022-07-29T10:49:57;64.36;49.33;76.37;;
71230;Laerm;57282;52.514;13.458;2022-07-29T10:52:25;63.06;46.90;76.84;;
71230;Laerm;57282;52.514;13.458;2022-07-29T10:55:31;64.32;46.41;77.25;;
71230;Laerm;57282;52.514;13.458;2022-07-29T10:58:15;67.25;42.76;82.81;;
71230;Laerm;57282;52.514;13.458;2022-07-29T11:00:42;62.87;45.62;76.46;;
71230;Laerm;57282;52.514;13.458;2022-07-29T11:03:44;62.89;45.05;76.45;;
71230;Laerm;57282;52.514;13.458;2022-07-29T11:06:11;63.22;45.81;79.44;;
71230;Laerm;57282;52.514;13.458;2022-07-29T11:08:39;60.65;46.63;73.05;;
71230;Laerm;57282;52.514;13.458;2022-07-29T11:11:36;62.32;44.02;77.40;;
71230;Laerm;57282;52.514;13.458;2022-07-29T11:14:04;62.99;44.22;76.04;;
71230;Laerm;57282;52.514;13.458;2022-07-29T11:16:59;64.43;47.26;76.45;;
71230;Laerm;57282;52.514;13.458;2022-07-29T11:19:29;64.26;48.75;78.61;;
71230;Laerm;57282;52.514;13.458;2022-07-29T11:21:56;63.54;46.38;77.62;;
71230;Laerm;57282;52.514;13.458;2022-07-29T11:24:25;64.25;45.66;77.68;;
71230;Laerm;57282;52.514;13.458;2022-07-29T11:27:15;64.45;47.18;81.47;;
71230;Laerm;57282;52.514;13.458;2022-07-29T11:29:54;63.54;46.21;76.56;;
71230;Laerm;57282;52.514;13.458;2022-07-29T11:32:23;64.25;43.31;77.06;;
71230;Laerm;57282;52.514;13.458;2022-07-29T11:35:15;60.26;43.13;75.95;;
71230;Laerm;57282;52.514;13.458;2022-07-29T11:37:43;65.33;47.62;78.81;;
71230;Laerm;57282;52.514;13.458;2022-07-29T11:40:20;65.38;47.30;78.73;;
71230;Laerm;57282;52.514;13.458;2022-07-29T11:42:49;63.21;44.12;77.21;;
71230;Laerm;57282;52.514;13.458;2022-07-29T11:45:22;80.58;47.98;102.51;;
71230;Laerm;57282;52.514;13.458;2022-07-29T11:47:55;63.32;46.10;78.28;;
71230;Laerm;57282;52.514;13.458;2022-07-29T11:50:35;60.94;42.10;74.81;;
71230;Laerm;57282;52.514;13.458;2022-07-29T11:53:10;61.38;44.44;76.29;;
71230;Laerm;57282;52.514;13.458;2022-07-29T11:55:38;60.78;41.83;76.79;;
71230;Laerm;57282;52.514;13.458;2022-07-29T11:58:05;62.64;44.83;76.46;;
71230;Laerm;57282;52.514;13.458;2022-07-29T12:00:36;63.42;44.04;76.77;;
71230;Laerm;57282;52.514;13.458;2022-07-29T12:03:06;64.29;49.04;75.95;;
71230;Laerm;57282;52.514;13.458;2022-07-29T12:05:40;65.31;45.14;84.04;;
71230;Laerm;57282;52.514;13.458;2022-07-29T12:08:14;63.61;44.51;72.98;;
71230;Laerm;57282;52.514;13.458;2022-07-29T12:10:45;61.80;45.60;75.52;;
71230;Laerm;57282;52.514;13.458;2022-07-29T12:13:13;63.24;45.32;77.77;;
71230;Laerm;57282;52.514;13.458;2022-07-29T12:15:41;65.81;45.45;78.29;;
71230;Laerm;57282;52.514;13.458;2022-07-29T12:18:14;64.56;45.77;82.23;;
71230;Laerm;57282;52.514;13.458;2022-07-29T12:20:43;64.32;45.69;77.86;;
71230;Laerm;57282;52.514;13.458;2022-07-29T12:23:11;62.63;44.30;73.09;;
71230;Laerm;57282;52.514;13.458;2022-07-29T12:25:40;64.29;45.09;75.90;;
71230;Laerm;57282;52.514;13.458;2022-07-29T12:28:11;61.69;47.81;73.11;;
71230;Laerm;57282;52.514;13.458;2022-07-29T12:30:42;62.33;44.84;76.21;;
71230;Laerm;57282;52.514;13.458;2022-07-29T12:33:17;61.90;46.14;74.03;;
71230;Laerm;57282;52.514;13.458;2022-07-29T12:35:48;63.28;46.31;79.22;;
71230;Laerm;57282;52.514;13.458;2022-07-29T12:38:16;61.17;44.78;76.42;;
71230;Laerm;57282;52.514;13.458;2022-07-29T12:40:46;64.07;43.36;75.55;;
71230;Laerm;57282;52.514;13.458;2022-07-29T12:43:15;65.38;43.18;77.30;;
71230;Laerm;57282;52.514;13.458;2022-07-29T12:45:47;64.07;45.69;76.74;;
71230;Laerm;57282;52.514;13.458;2022-07-29T12:48:16;62.86;47.44;74.77;;
71230;Laerm;57282;52.514;13.458;2022-07-29T12:50:56;63.12;45.19;78.74;;
71230;Laerm;57282;52.514;13.458;2022-07-29T12:53:23;63.29;45.33;77.46;;
71230;Laerm;57282;52.514;13.458;2022-07-29T12:55:53;62.43;44.62;73.41;;
71230;Laerm;57282;52.514;13.458;2022-07-29T12:58:33;61.95;45.14;71.61;;
71230;Laerm;57282;52.514;13.458;2022-07-29T13:01:08;62.19;47.26;72.75;;
71230;Laerm;57282;52.514;13.458;2022-07-29T13:03:53;64.43;46.02;75.58;;
71230;Laerm;57282;52.514;13.458;2022-07-29T13:06:37;63.18;51.36;75.93;;
71230;Laerm;57282;52.514;13.458;2022-07-29T13:09:08;63.39;46.56;77.33;;
71230;Laerm;57282;52.514;13.458;2022-07-29T13:11:38;62.21;44.66;79.03;;
71230;Laerm;57282;52.514;13.458;2022-07-29T13:14:07;61.45;46.34;74.60;;
71230;Laerm;57282;52.514;13.458;2022-07-29T13:16:36;65.51;47.14;86.07;;
71230;Laerm;57282;52.514;13.458;2022-07-29T13:19:07;66.98;46.32;82.42;;
71230;Laerm;57282;52.514;13.458;2022-07-29T13:21:37;62.99;45.07;73.57;;
71230;Laerm;57282;52.514;13.458;2022-07-29T13:24:06;64.33;45.12;79.13;;
71230;Laerm;57282;52.514;13.458;2022-07-29T13:26:34;65.11;44.13;82.16;;
71230;Laerm;57282;52.514;13.458;2022-07-29T13:29:02;65.01;46.30;78.77;;
71230;Laerm;57282;52.514;13.458;2022-07-29T13:31:29;64.83;47.01;77.02;;
71230;Laerm;57282;52.514;13.458;2022-07-29T13:33:56;65.04;43.00;81.02;;
71230;Laerm;57282;52.514;13.458;2022-07-29T13:36:23;61.84;45.58;73.79;;
71230;Laerm;57282;52.514;13.458;2022-07-29T13:38:52;64.67;45.67;76.51;;
71230;Laerm;57282;52.514;13.458;2022-07-29T13:41:18;64.40;45.51;76.14;;
71230;Laerm;57282;52.514;13.458;2022-07-29T13:43:45;63.69;45.92;75.93;;
71230;Laerm;57282;52.514;13.458;2022-07-29T13:46:11;64.20;45.79;77.19;;
71230;Laerm;57282;52.514;13.458;2022-07-29T13:48:38;65.45;49.04;79.03;;